createdAt,value
2022-11-08T00:01:53.054Z,11.93
2022-11-08T00:04:24.978Z,11.88
2022-11-08T00:07:15.010Z,13.02
2022-11-08T00:10:05.074Z,11.23
2022-11-08T00:12:55.635Z,11.23
2022-11-08T00:15:27.332Z,12.73
2022-11-08T00:17:58.972Z,14.70
2022-11-08T00:20:30.543Z,14.13
2022-11-08T00:23:02.179Z,12.27
2022-11-08T00:25:33.776Z,14.13
2022-11-08T00:28:05.412Z,12.93
2022-11-08T00:30:36.984Z,10.75
2022-11-08T00:33:08.729Z,12.10
2022-11-08T00:35:40.288Z,13.45
2022-11-08T00:38:11.947Z,12.13
2022-11-08T00:40:43.523Z,13.52
2022-11-08T00:43:15.138Z,11.82
2022-11-08T00:45:46.712Z,11.38
2022-11-08T00:48:18.602Z,13.27
2022-11-08T00:50:50.508Z,12.25
2022-11-08T00:53:22.406Z,10.48
2022-11-08T00:56:05.636Z,11.77
2022-11-08T00:58:37.436Z,12.70
2022-11-08T01:01:17.424Z,14.90
2022-11-08T01:03:49.344Z,11.68
2022-11-08T01:06:22.583Z,12.02
2022-11-08T01:08:56.220Z,14.68
2022-11-08T01:11:28.322Z,12.02
2022-11-08T01:14:01.415Z,14.85
2022-11-08T01:16:33.876Z,10.88
2022-11-08T01:19:05.581Z,12.70
2022-11-08T01:21:37.460Z,13.30
2022-11-08T01:24:09.191Z,11.90
2022-11-08T01:26:40.757Z,11.82
2022-11-08T01:29:12.373Z,11.70
2022-11-08T01:31:44.047Z,11.50
2022-11-08T01:34:15.679Z,11.05
2022-11-08T01:36:47.254Z,10.30
2022-11-08T01:39:18.864Z,10.23
2022-11-08T01:41:50.432Z,11.98
2022-11-08T01:44:22.905Z,8.75
2022-11-08T01:46:54.763Z,8.55
2022-11-08T01:49:40.093Z,8.95
2022-11-08T01:52:27.867Z,10.43
2022-11-08T01:55:23.079Z,9.65
2022-11-08T01:58:06.497Z,10.35
2022-11-08T02:00:39.675Z,15.32
2022-11-08T02:03:14.106Z,10.75
2022-11-08T02:05:46.393Z,12.57
2022-11-08T02:08:26.561Z,12.80
2022-11-08T02:10:58.316Z,11.80
2022-11-08T02:13:31.871Z,12.30
2022-11-08T02:16:10.331Z,13.35
2022-11-08T02:18:44.151Z,9.90
2022-11-08T02:21:28.347Z,12.73
2022-11-08T02:24:02.886Z,10.80
2022-11-08T02:26:35.851Z,15.05
2022-11-08T02:29:41.143Z,13.60
2022-11-08T02:32:12.787Z,12.27
2022-11-08T02:34:52.775Z,13.07
2022-11-08T02:37:26.767Z,14.50
2022-11-08T02:39:58.428Z,12.52
2022-11-08T02:42:30.072Z,15.30
2022-11-08T02:45:01.655Z,13.30
2022-11-08T02:47:33.294Z,14.68
2022-11-08T02:50:05.384Z,16.27
2022-11-08T02:52:36.978Z,14.35
2022-11-08T02:55:08.596Z,14.88
2022-11-08T02:57:40.206Z,14.70
2022-11-08T03:00:12.572Z,11.93
2022-11-08T03:02:44.197Z,13.45
2022-11-08T03:05:15.828Z,14.75
2022-11-08T03:07:47.860Z,11.18
2022-11-08T03:10:19.713Z,16.88
2022-11-08T03:13:03.035Z,12.32
2022-11-08T03:15:34.633Z,14.88
2022-11-08T03:18:06.391Z,15.68
2022-11-08T03:20:37.977Z,13.00
2022-11-08T03:23:09.674Z,15.73
2022-11-08T03:25:41.277Z,13.77
2022-11-08T03:28:12.953Z,15.40
2022-11-08T03:30:44.638Z,13.52
2022-11-08T03:33:16.235Z,12.05
2022-11-08T03:35:49.056Z,13.35
2022-11-08T03:38:20.966Z,12.90
2022-11-08T03:40:52.548Z,14.52
2022-11-08T03:43:24.651Z,15.88
2022-11-08T03:45:56.269Z,13.07
2022-11-08T03:48:29.863Z,11.77
2022-11-08T03:51:01.464Z,17.13
2022-11-08T03:53:33.063Z,12.40
2022-11-08T03:56:04.947Z,12.75
2022-11-08T03:58:36.600Z,13.15
2022-11-08T04:01:09.550Z,12.30
2022-11-08T04:03:41.261Z,10.68
2022-11-08T04:06:12.836Z,15.10
2022-11-08T04:08:44.465Z,12.60
2022-11-08T04:11:34.634Z,13.02
2022-11-08T04:14:24.877Z,17.52
2022-11-08T04:16:58.744Z,14.23
2022-11-08T04:19:49.359Z,14.10
2022-11-08T04:22:20.911Z,12.77
2022-11-08T04:24:53.803Z,11.88
2022-11-08T04:27:25.417Z,13.10
2022-11-08T04:29:57.110Z,11.05
2022-11-08T04:32:28.686Z,10.90
2022-11-08T04:35:00.285Z,12.38
2022-11-08T04:37:31.892Z,13.02
2022-11-08T04:40:06.699Z,13.30
2022-11-08T04:42:38.565Z,10.68
2022-11-08T04:45:10.956Z,12.75
2022-11-08T04:47:48.394Z,11.05
2022-11-08T04:50:20.289Z,15.65
2022-11-08T04:52:53.579Z,15.07
2022-11-08T04:55:25.308Z,13.52
2022-11-08T04:57:58.960Z,15.52
2022-11-08T05:00:30.560Z,14.48
2022-11-08T05:03:02.901Z,10.38
2022-11-08T05:05:34.739Z,11.90
2022-11-08T05:08:06.514Z,10.25
2022-11-08T05:10:38.103Z,12.82
2022-11-08T05:13:09.791Z,14.05
2022-11-08T05:15:43.372Z,11.98
2022-11-08T05:18:16.473Z,14.75
2022-11-08T05:21:12.662Z,12.70
2022-11-08T05:23:45.563Z,12.98
2022-11-08T05:26:18.936Z,13.52
2022-11-08T05:28:53.876Z,14.02
2022-11-08T05:31:25.605Z,12.85
2022-11-08T05:33:57.350Z,16.10
2022-11-08T05:36:29.191Z,14.18
2022-11-08T05:39:03.893Z,14.88
2022-11-08T05:41:35.477Z,15.07
2022-11-08T05:44:07.099Z,15.65
2022-11-08T05:46:38.693Z,12.15
2022-11-08T05:49:10.277Z,13.52
2022-11-08T05:51:41.834Z,14.65
2022-11-08T05:54:13.531Z,12.88
2022-11-08T05:56:45.175Z,12.40
2022-11-08T05:59:16.859Z,12.70
2022-11-08T06:01:48.482Z,13.27
2022-11-08T06:04:20.107Z,15.38
2022-11-08T06:06:51.744Z,12.20
2022-11-08T06:09:23.464Z,14.15
2022-11-08T06:11:55.063Z,13.63
2022-11-08T06:14:26.632Z,12.55
2022-11-08T06:16:58.221Z,15.02
2022-11-08T06:19:30.152Z,15.35
2022-11-08T06:22:01.824Z,12.43
2022-11-08T06:24:33.362Z,14.50
2022-11-08T06:27:04.992Z,14.52
2022-11-08T06:29:36.685Z,17.08
2022-11-08T06:32:10.427Z,12.10
2022-11-08T06:34:42.072Z,11.70
2022-11-08T06:37:14.097Z,11.48
2022-11-08T06:39:45.775Z,13.32
2022-11-08T06:42:17.432Z,13.00
2022-11-08T06:44:52.200Z,21.45
2022-11-08T06:47:26.824Z,13.55
2022-11-08T06:52:29.850Z,12.52
2022-11-08T06:55:01.459Z,10.88
2022-11-08T06:57:33.601Z,10.70
2022-11-08T07:00:05.746Z,13.88
2022-11-08T07:02:37.476Z,10.50
2022-11-08T07:05:09.244Z,12.60
2022-11-08T07:07:40.945Z,15.45
2022-11-08T07:10:13.997Z,14.15
2022-11-08T07:12:45.886Z,14.80
2022-11-08T07:15:18.672Z,11.05
2022-11-08T07:17:50.319Z,9.30
2022-11-08T07:20:22.377Z,10.20
2022-11-08T07:22:57.556Z,12.07
2022-11-08T07:25:30.511Z,9.63
2022-11-08T07:28:04.557Z,12.77
2022-11-08T07:30:36.246Z,11.27
2022-11-08T07:33:07.837Z,11.63
2022-11-08T07:35:39.773Z,9.68
2022-11-08T07:38:11.354Z,12.18
2022-11-08T07:40:43.241Z,11.65
2022-11-08T07:43:15.131Z,11.63
2022-11-08T07:45:55.450Z,11.10
2022-11-08T07:48:28.955Z,11.52
2022-11-08T07:51:00.578Z,11.07
2022-11-08T07:53:32.238Z,12.52
2022-11-08T07:56:03.955Z,10.13
2022-11-08T07:58:35.842Z,12.98
2022-11-08T08:01:07.582Z,10.82
2022-11-08T08:03:39.243Z,14.10
2022-11-08T08:06:11.056Z,10.80
2022-11-08T08:08:42.792Z,10.35
2022-11-08T08:11:15.158Z,8.73
2022-11-08T08:13:46.744Z,13.05
2022-11-08T08:16:18.772Z,10.93
2022-11-08T08:18:56.455Z,14.60
2022-11-08T08:21:28.485Z,10.30
2022-11-08T08:24:00.091Z,12.15
2022-11-08T08:26:31.844Z,16.70
2022-11-08T08:29:03.496Z,13.55
2022-11-08T08:31:35.067Z,19.92
2022-11-08T08:34:09.561Z,13.00
2022-11-08T08:36:42.051Z,11.57
2022-11-08T08:39:13.872Z,15.15
2022-11-08T08:41:45.440Z,13.63
2022-11-08T08:44:17.161Z,14.75
2022-11-08T08:46:49.017Z,17.15
2022-11-08T08:49:21.561Z,15.90
2022-11-08T08:51:53.179Z,22.33
2022-11-08T08:54:29.338Z,20.65
2022-11-08T08:57:01.174Z,21.02
2022-11-08T09:02:24.358Z,37.03
2022-11-08T09:04:56.691Z,33.92
2022-11-08T09:07:28.265Z,43.95
2022-11-08T09:10:01.060Z,43.58
2022-11-08T09:12:33.044Z,40.70
2022-11-08T09:15:06.731Z,53.28
2022-11-08T09:17:38.332Z,49.15
2022-11-08T09:20:11.083Z,41.47
2022-11-08T09:22:42.709Z,23.13
2022-11-08T09:25:14.443Z,26.05
2022-11-08T09:27:46.384Z,13.35
2022-11-08T09:30:18.047Z,12.18
2022-11-08T09:33:02.131Z,12.57
2022-11-08T09:35:34.296Z,10.95
2022-11-08T09:38:05.886Z,9.45
2022-11-08T09:40:42.943Z,7.82
2022-11-08T09:43:46.384Z,11.98
2022-11-08T09:46:44.184Z,12.93
2022-11-08T09:49:22.642Z,13.32
2022-11-08T09:51:54.481Z,8.27
2022-11-08T09:54:40.668Z,12.70
2022-11-08T09:57:19.720Z,10.73
2022-11-08T09:59:58.556Z,11.98
2022-11-08T10:02:34.542Z,10.98
2022-11-08T10:05:12.703Z,17.67
2022-11-08T10:07:57.809Z,10.93
2022-11-08T10:11:12.301Z,10.55
2022-11-08T10:13:57.554Z,12.77
2022-11-08T10:17:07.153Z,10.75
2022-11-08T10:20:16.384Z,9.90
2022-11-08T10:23:26.726Z,11.07
2022-11-08T10:26:08.239Z,12.88
2022-11-08T10:29:07.247Z,7.80
2022-11-08T10:31:41.651Z,6.22
2022-11-08T10:34:17.857Z,10.57
2022-11-08T10:36:54.668Z,9.90
2022-11-08T10:39:36.524Z,7.63
2022-11-08T10:42:37.412Z,10.43
2022-11-08T10:45:10.325Z,5.53
2022-11-08T10:47:46.143Z,9.95
2022-11-08T10:50:22.627Z,6.85
2022-11-08T10:52:59.579Z,7.97
2022-11-08T10:55:39.214Z,6.35
2022-11-08T10:58:29.855Z,6.85
2022-11-08T11:01:19.679Z,9.20
2022-11-08T11:03:53.273Z,9.77
2022-11-08T11:06:31.000Z,7.53
2022-11-08T11:09:18.623Z,9.95
2022-11-08T11:11:58.439Z,7.05
2022-11-08T11:14:30.042Z,6.93
2022-11-08T11:17:07.542Z,6.82
2022-11-08T11:19:44.537Z,6.72
2022-11-08T11:22:16.159Z,8.40
2022-11-08T11:24:51.630Z,9.00
2022-11-08T11:27:31.068Z,6.47
2022-11-08T11:30:28.116Z,8.80
2022-11-08T11:33:04.814Z,6.43
2022-11-08T11:35:47.650Z,6.85
2022-11-08T11:41:17.040Z,7.97
2022-11-08T11:44:07.130Z,8.30
2022-11-08T11:46:52.234Z,6.35
2022-11-08T11:49:25.643Z,8.13
2022-11-08T11:52:00.309Z,5.37
2022-11-08T11:54:34.811Z,7.05
2022-11-08T11:57:19.164Z,6.90
2022-11-08T12:00:09.597Z,6.65
2022-11-08T12:03:12.651Z,7.72
2022-11-08T12:06:06.107Z,6.05
2022-11-08T12:08:48.521Z,7.80
2022-11-08T12:11:35.035Z,8.07
2022-11-08T12:14:35.708Z,7.72
2022-11-08T12:17:25.602Z,8.32
2022-11-08T12:20:26.916Z,5.80
2022-11-08T12:23:07.768Z,8.00
2022-11-08T12:25:53.117Z,7.72
2022-11-08T12:28:47.149Z,8.35
2022-11-08T12:31:33.992Z,6.28
2022-11-08T12:34:30.753Z,6.88
2022-11-08T12:37:28.934Z,7.40
2022-11-08T12:40:07.070Z,5.28
2022-11-08T12:42:57.093Z,4.80
2022-11-08T12:45:56.874Z,11.25
2022-11-08T12:48:41.304Z,7.88
2022-11-08T12:51:27.698Z,7.00
2022-11-08T12:54:18.249Z,8.23
2022-11-08T12:56:52.594Z,5.63
2022-11-08T12:59:48.029Z,5.68
2022-11-08T13:02:26.705Z,7.95
2022-11-08T13:05:46.416Z,7.88
2022-11-08T13:08:36.160Z,9.13
2022-11-08T13:11:16.316Z,9.55
2022-11-08T13:13:52.969Z,7.47
2022-11-08T13:16:27.961Z,6.10
2022-11-08T13:19:01.424Z,5.53
2022-11-08T13:21:42.156Z,6.43
2022-11-08T13:24:38.397Z,5.53
2022-11-08T13:27:24.597Z,6.25
2022-11-08T13:30:02.486Z,4.35
2022-11-08T13:33:01.477Z,6.47
2022-11-08T13:35:41.130Z,6.07
2022-11-08T13:38:48.259Z,6.10
2022-11-08T13:41:22.930Z,6.80
2022-11-08T13:43:56.075Z,5.32
2022-11-08T13:46:30.415Z,5.60
2022-11-08T13:49:06.021Z,5.80
2022-11-08T13:51:42.057Z,5.95
2022-11-08T13:54:22.706Z,7.90
2022-11-08T13:56:57.835Z,4.57
2022-11-08T13:59:32.621Z,8.98
2022-11-08T14:02:29.601Z,5.50
2022-11-08T14:05:28.631Z,5.25
2022-11-08T14:08:21.829Z,6.00
2022-11-08T14:11:12.158Z,5.55
2022-11-08T14:14:28.422Z,4.72
2022-11-08T14:17:26.175Z,6.10
2022-11-08T14:20:30.139Z,3.75
2022-11-08T14:23:26.199Z,5.88
2022-11-08T14:25:59.967Z,7.05
2022-11-08T14:28:33.084Z,5.10
2022-11-08T14:31:08.007Z,6.57
2022-11-08T14:33:42.759Z,8.73
2022-11-08T14:36:17.276Z,6.50
2022-11-08T14:41:29.272Z,5.93
2022-11-08T14:44:02.528Z,5.38
2022-11-08T14:46:39.976Z,4.70
2022-11-08T14:49:15.576Z,7.00
2022-11-08T14:51:47.459Z,4.95
2022-11-08T14:54:26.846Z,8.38
2022-11-08T14:56:58.450Z,4.57
2022-11-08T14:59:30.140Z,5.45
2022-11-08T15:02:01.776Z,4.95
2022-11-08T15:04:40.113Z,9.38
2022-11-08T15:07:11.911Z,6.20
2022-11-08T15:09:43.586Z,7.00
2022-11-08T15:12:18.521Z,7.25
2022-11-08T15:15:01.607Z,6.85
2022-11-08T15:17:38.332Z,4.68
2022-11-08T15:20:17.528Z,4.85
2022-11-08T15:22:52.879Z,3.72
2022-11-08T15:25:34.683Z,6.75
2022-11-08T15:28:25.495Z,7.63
2022-11-08T15:31:01.094Z,6.72
2022-11-08T15:33:36.026Z,7.15
2022-11-08T15:36:15.510Z,6.20
2022-11-08T15:38:50.065Z,6.03
2022-11-08T15:44:14.363Z,8.95
2022-11-08T15:46:46.383Z,8.75
2022-11-08T15:49:28.196Z,6.88
2022-11-08T15:51:59.843Z,5.65
2022-11-08T15:54:31.425Z,8.65
2022-11-08T15:57:04.992Z,11.18
2022-11-08T15:59:37.600Z,6.78
2022-11-08T16:02:13.423Z,9.00
2022-11-08T16:04:45.035Z,7.50
2022-11-08T16:07:16.949Z,10.40
2022-11-08T16:09:48.601Z,9.10
2022-11-08T16:12:20.200Z,12.25
2022-11-08T16:14:52.030Z,14.50
2022-11-08T16:17:23.612Z,9.82
2022-11-08T16:19:55.197Z,11.65
2022-11-08T16:22:26.839Z,8.13
2022-11-08T16:24:58.383Z,10.13
2022-11-08T16:27:30.042Z,9.40
2022-11-08T16:30:01.704Z,8.63
2022-11-08T16:32:33.338Z,13.38
2022-11-08T16:35:05.284Z,9.50
2022-11-08T16:37:37.786Z,9.32
2022-11-08T16:40:17.040Z,14.80
2022-11-08T16:42:50.920Z,13.20
2022-11-08T16:45:43.423Z,9.57
2022-11-08T16:48:18.619Z,13.15
2022-11-08T16:50:50.496Z,12.32
2022-11-08T16:53:22.128Z,14.40
2022-11-08T16:55:53.823Z,12.02
2022-11-08T16:58:27.940Z,13.35
2022-11-08T17:01:09.966Z,11.88
2022-11-08T17:03:42.436Z,12.57
2022-11-08T17:06:16.603Z,16.35
2022-11-08T17:08:51.332Z,17.50
2022-11-08T17:13:55.379Z,18.02
2022-11-08T17:16:27.290Z,17.40
2022-11-08T17:18:59.156Z,15.50
2022-11-08T17:21:44.117Z,17.88
2022-11-08T17:24:21.672Z,16.50
2022-11-08T17:26:54.038Z,14.55
2022-11-08T17:29:25.868Z,12.00
2022-11-08T17:31:57.503Z,19.60
2022-11-08T17:34:29.569Z,13.85
2022-11-08T17:37:01.189Z,18.95
2022-11-08T17:39:33.148Z,17.15
2022-11-08T17:42:09.198Z,18.30
2022-11-08T17:44:40.884Z,13.82
2022-11-08T17:47:12.696Z,19.25
2022-11-08T17:49:44.383Z,19.85
2022-11-08T17:52:19.594Z,17.48
2022-11-08T17:54:53.104Z,19.00
2022-11-08T17:57:24.907Z,17.38
2022-11-08T17:59:59.755Z,14.00
2022-11-08T18:02:31.867Z,23.33
2022-11-08T18:05:03.760Z,19.95
2022-11-08T18:07:35.389Z,22.15
2022-11-08T18:10:08.062Z,23.83
2022-11-08T18:12:40.259Z,20.42
2022-11-08T18:15:11.864Z,20.27
2022-11-08T18:20:24.948Z,14.68
2022-11-08T18:22:56.525Z,19.00
2022-11-08T18:25:28.240Z,15.10
2022-11-08T18:28:00.047Z,22.33
2022-11-08T18:30:35.873Z,18.33
2022-11-08T18:33:07.755Z,21.13
2022-11-08T18:35:39.832Z,15.82
2022-11-08T18:38:12.771Z,22.08
2022-11-08T18:40:45.539Z,23.25
2022-11-08T18:43:17.456Z,17.65
2022-11-08T18:45:49.209Z,14.65
2022-11-08T18:48:20.836Z,14.77
2022-11-08T18:50:52.496Z,14.57
2022-11-08T18:53:27.140Z,12.18
2022-11-08T18:58:30.360Z,12.05
2022-11-08T19:01:02.280Z,14.02
2022-11-08T19:03:36.355Z,13.38
2022-11-08T19:06:08.544Z,17.30
2022-11-08T19:08:40.140Z,16.10
2022-11-08T19:11:13.169Z,14.35
2022-11-08T19:13:44.757Z,18.42
2022-11-08T19:16:19.018Z,19.77
2022-11-08T19:18:50.687Z,16.23
2022-11-08T19:21:25.079Z,17.25
2022-11-08T19:23:58.679Z,14.10
2022-11-08T19:26:32.851Z,14.65
2022-11-08T19:29:05.074Z,16.00
2022-11-08T19:31:37.038Z,12.82
2022-11-08T19:34:09.698Z,14.35
2022-11-08T19:36:43.640Z,13.05
2022-11-08T19:39:15.943Z,14.20
2022-11-08T19:41:47.731Z,14.30
2022-11-08T19:44:21.627Z,14.80
2022-11-08T19:46:53.258Z,15.05
2022-11-08T19:49:26.365Z,14.40
2022-11-08T19:51:57.971Z,15.32
2022-11-08T19:54:29.607Z,14.50
2022-11-08T19:57:05.729Z,16.50
2022-11-08T19:59:37.890Z,18.02
2022-11-08T20:02:09.728Z,16.08
2022-11-08T20:04:41.480Z,15.50
2022-11-08T20:07:14.813Z,14.98
2022-11-08T20:09:46.488Z,18.80
2022-11-08T20:12:18.193Z,17.88
2022-11-08T20:14:49.961Z,18.95
2022-11-08T20:17:21.620Z,18.92
2022-11-08T20:19:53.388Z,19.38
2022-11-08T20:22:25.092Z,19.67
2022-11-08T20:24:56.733Z,19.15
2022-11-08T20:27:30.432Z,20.67
2022-11-08T20:30:02.137Z,18.73
2022-11-08T20:32:33.819Z,19.92
2022-11-08T20:35:05.904Z,19.85
2022-11-08T20:37:37.513Z,19.02
2022-11-08T20:40:09.792Z,17.83
2022-11-08T20:42:42.452Z,16.17
2022-11-08T20:45:15.344Z,17.77
2022-11-08T20:47:48.234Z,17.60
2022-11-08T20:50:20.115Z,19.08
2022-11-08T20:52:51.742Z,16.33
2022-11-08T20:55:26.404Z,17.38
2022-11-08T21:00:51.968Z,20.13
2022-11-08T21:03:22.397Z,20.75
2022-11-08T21:05:56.160Z,20.35
2022-11-08T21:08:58.417Z,21.87
2022-11-08T21:11:21.425Z,19.30
2022-11-08T21:13:53.165Z,19.00
2022-11-08T21:16:42.673Z,19.17
2022-11-08T21:19:16.914Z,20.58
2022-11-08T21:21:48.532Z,22.33
2022-11-08T21:24:21.333Z,18.15
2022-11-08T21:26:52.952Z,19.23
2022-11-08T21:29:24.598Z,21.85
2022-11-08T21:31:56.239Z,18.45
2022-11-08T21:34:32.620Z,18.98
2022-11-08T21:37:04.553Z,20.27
2022-11-08T21:39:36.725Z,18.73
2022-11-08T21:42:08.382Z,19.25
2022-11-08T21:44:40.032Z,18.35
2022-11-08T21:47:11.671Z,21.13
2022-11-08T21:49:43.339Z,20.88
2022-11-08T21:52:15.007Z,19.88
2022-11-08T21:54:46.645Z,22.95
2022-11-08T21:57:18.349Z,19.20
2022-11-08T21:59:52.786Z,21.00
2022-11-08T22:02:24.476Z,20.17
2022-11-08T22:04:56.144Z,21.30
2022-11-08T22:07:27.888Z,20.27
2022-11-08T22:09:59.929Z,18.30
2022-11-08T22:12:31.609Z,19.52
2022-11-08T22:15:03.558Z,18.33
2022-11-08T22:17:42.878Z,23.75
2022-11-08T22:20:21.920Z,19.85
2022-11-08T22:22:54.814Z,17.67
2022-11-08T22:25:28.501Z,21.65
2022-11-08T22:28:00.120Z,18.05
2022-11-08T22:30:33.786Z,17.63
2022-11-08T22:33:05.414Z,17.38
2022-11-08T22:35:37.048Z,19.27
2022-11-08T22:38:11.601Z,17.73
2022-11-08T22:40:45.511Z,17.83
2022-11-08T22:43:17.233Z,18.98
2022-11-08T22:45:48.888Z,20.60
2022-11-08T22:48:20.887Z,18.80
2022-11-08T22:50:52.661Z,20.50
2022-11-08T22:53:24.825Z,17.83
2022-11-08T22:55:56.857Z,19.75
2022-11-08T22:58:29.549Z,17.60
2022-11-08T23:01:01.235Z,18.05
2022-11-08T23:03:32.833Z,20.13
2022-11-08T23:06:04.878Z,18.30
2022-11-08T23:08:36.928Z,17.02
2022-11-08T23:11:27.304Z,18.67
2022-11-08T23:14:17.671Z,16.75
2022-11-08T23:16:49.315Z,19.02
2022-11-08T23:19:41.781Z,15.70
2022-11-08T23:22:34.837Z,19.33
2022-11-08T23:25:06.882Z,16.80
2022-11-08T23:27:57.211Z,17.23
2022-11-08T23:30:47.721Z,17.23
2022-11-08T23:33:19.508Z,16.63
2022-11-08T23:36:16.904Z,18.70
2022-11-08T23:38:48.759Z,16.33
2022-11-08T23:41:39.219Z,16.88
2022-11-08T23:44:26.725Z,16.40
2022-11-08T23:47:00.852Z,18.73
2022-11-08T23:49:32.487Z,18.45
2022-11-08T23:52:04.264Z,17.30
2022-11-08T23:54:35.841Z,14.93
2022-11-08T23:57:07.428Z,16.15
2022-11-08T23:59:39.009Z,17.17
